sensor_id;sensor_type;location;lat;lon;timestamp;P1;durP1;ratioP1;P2;durP2;ratioP2
9330;SDS011;4704;50.470;12.072;2023-09-19T00:01:39;1.55;;;1.20;;
9330;SDS011;4704;50.470;12.072;2023-09-19T00:04:09;2.25;;;1.38;;
9330;SDS011;4704;50.470;12.072;2023-09-19T00:06:37;1.42;;;1.25;;
9330;SDS011;4704;50.470;12.072;2023-09-19T00:09:05;1.65;;;1.10;;
9330;SDS011;4704;50.470;12.072;2023-09-19T00:11:35;0.95;;;0.90;;
9330;SDS011;4704;50.470;12.072;2023-09-19T00:14:04;1.15;;;1.05;;
9330;SDS011;4704;50.470;12.072;2023-09-19T00:16:33;1.58;;;1.25;;
9330;SDS011;4704;50.470;12.072;2023-09-19T00:19:02;1.30;;;1.20;;
9330;SDS011;4704;50.470;12.072;2023-09-19T00:21:32;1.42;;;1.23;;
9330;SDS011;4704;50.470;12.072;2023-09-19T00:24:00;1.80;;;1.30;;
9330;SDS011;4704;50.470;12.072;2023-09-19T00:26:29;1.13;;;1.02;;
9330;SDS011;4704;50.470;12.072;2023-09-19T00:28:59;1.67;;;1.05;;
9330;SDS011;4704;50.470;12.072;2023-09-19T00:31:33;1.30;;;1.20;;
9330;SDS011;4704;50.470;12.072;2023-09-19T00:34:03;1.15;;;1.05;;
9330;SDS011;4704;50.470;12.072;2023-09-19T00:36:32;1.35;;;1.10;;
9330;SDS011;4704;50.470;12.072;2023-09-19T00:39:00;1.27;;;1.10;;
9330;SDS011;4704;50.470;12.072;2023-09-19T00:41:28;1.30;;;1.15;;
9330;SDS011;4704;50.470;12.072;2023-09-19T00:43:56;1.60;;;1.10;;
9330;SDS011;4704;50.470;12.072;2023-09-19T00:46:25;1.08;;;0.98;;
9330;SDS011;4704;50.470;12.072;2023-09-19T00:48:52;1.38;;;1.20;;
9330;SDS011;4704;50.470;12.072;2023-09-19T00:51:22;1.55;;;1.15;;
9330;SDS011;4704;50.470;12.072;2023-09-19T00:53:51;1.65;;;1.17;;
9330;SDS011;4704;50.470;12.072;2023-09-19T00:56:19;3.20;;;1.10;;
9330;SDS011;4704;50.470;12.072;2023-09-19T00:58:48;1.17;;;1.00;;
9330;SDS011;4704;50.470;12.072;2023-09-19T01:01:16;1.23;;;1.00;;
9330;SDS011;4704;50.470;12.072;2023-09-19T01:03:44;1.15;;;1.00;;
9330;SDS011;4704;50.470;12.072;2023-09-19T01:06:11;1.40;;;1.08;;
9330;SDS011;4704;50.470;12.072;2023-09-19T01:08:39;1.35;;;1.10;;
9330;SDS011;4704;50.470;12.072;2023-09-19T01:11:11;1.90;;;1.25;;
9330;SDS011;4704;50.470;12.072;2023-09-19T01:13:43;1.25;;;0.93;;
9330;SDS011;4704;50.470;12.072;2023-09-19T01:16:16;1.10;;;1.00;;
9330;SDS011;4704;50.470;12.072;2023-09-19T01:18:47;0.90;;;0.90;;
9330;SDS011;4704;50.470;12.072;2023-09-19T01:21:19;1.00;;;0.90;;
9330;SDS011;4704;50.470;12.072;2023-09-19T01:23:56;1.98;;;0.98;;
9330;SDS011;4704;50.470;12.072;2023-09-19T01:26:33;1.70;;;0.90;;
9330;SDS011;4704;50.470;12.072;2023-09-19T01:29:17;2.30;;;1.02;;
9330;SDS011;4704;50.470;12.072;2023-09-19T01:31:56;1.20;;;1.02;;
9330;SDS011;4704;50.470;12.072;2023-09-19T01:34:26;1.20;;;0.98;;
9330;SDS011;4704;50.470;12.072;2023-09-19T01:36:54;1.38;;;0.90;;
9330;SDS011;4704;50.470;12.072;2023-09-19T01:39:23;1.10;;;0.90;;
9330;SDS011;4704;50.470;12.072;2023-09-19T01:41:55;2.08;;;1.13;;
9330;SDS011;4704;50.470;12.072;2023-09-19T01:44:31;1.42;;;1.10;;
9330;SDS011;4704;50.470;12.072;2023-09-19T01:47:04;2.95;;;1.30;;
9330;SDS011;4704;50.470;12.072;2023-09-19T01:49:34;1.13;;;0.95;;
9330;SDS011;4704;50.470;12.072;2023-09-19T01:52:09;1.60;;;1.00;;
9330;SDS011;4704;50.470;12.072;2023-09-19T01:54:40;1.88;;;1.05;;
9330;SDS011;4704;50.470;12.072;2023-09-19T01:57:09;1.20;;;1.10;;
9330;SDS011;4704;50.470;12.072;2023-09-19T01:59:43;1.65;;;0.90;;
9330;SDS011;4704;50.470;12.072;2023-09-19T02:02:14;1.80;;;1.05;;
9330;SDS011;4704;50.470;12.072;2023-09-19T02:04:43;1.60;;;1.15;;
9330;SDS011;4704;50.470;12.072;2023-09-19T02:07:10;1.10;;;1.00;;
9330;SDS011;4704;50.470;12.072;2023-09-19T02:09:40;1.92;;;0.93;;
9330;SDS011;4704;50.470;12.072;2023-09-19T02:12:08;1.58;;;1.00;;
9330;SDS011;4704;50.470;12.072;2023-09-19T02:14:36;1.20;;;1.10;;
9330;SDS011;4704;50.470;12.072;2023-09-19T02:17:03;1.15;;;1.00;;
9330;SDS011;4704;50.470;12.072;2023-09-19T02:19:38;1.23;;;1.10;;
9330;SDS011;4704;50.470;12.072;2023-09-19T02:22:06;1.50;;;0.98;;
9330;SDS011;4704;50.470;12.072;2023-09-19T02:24:35;1.77;;;1.08;;
9330;SDS011;4704;50.470;12.072;2023-09-19T02:27:03;1.35;;;1.10;;
9330;SDS011;4704;50.470;12.072;2023-09-19T02:29:32;0.85;;;0.85;;
9330;SDS011;4704;50.470;12.072;2023-09-19T02:32:00;1.20;;;1.10;;
9330;SDS011;4704;50.470;12.072;2023-09-19T02:34:28;1.30;;;1.20;;
9330;SDS011;4704;50.470;12.072;2023-09-19T02:36:58;1.13;;;1.02;;
9330;SDS011;4704;50.470;12.072;2023-09-19T02:39:25;1.38;;;1.10;;
9330;SDS011;4704;50.470;12.072;2023-09-19T02:41:54;1.15;;;1.05;;
9330;SDS011;4704;50.470;12.072;2023-09-19T02:44:21;1.55;;;1.10;;
9330;SDS011;4704;50.470;12.072;2023-09-19T02:46:49;1.30;;;1.08;;
9330;SDS011;4704;50.470;12.072;2023-09-19T02:49:17;2.50;;;1.15;;
9330;SDS011;4704;50.470;12.072;2023-09-19T02:51:44;1.73;;;1.25;;
9330;SDS011;4704;50.470;12.072;2023-09-19T02:54:14;1.38;;;1.27;;
9330;SDS011;4704;50.470;12.072;2023-09-19T02:56:42;1.73;;;1.10;;
9330;SDS011;4704;50.470;12.072;2023-09-19T02:59:24;1.35;;;1.20;;
9330;SDS011;4704;50.470;12.072;2023-09-19T03:01:51;1.10;;;1.00;;
9330;SDS011;4704;50.470;12.072;2023-09-19T03:04:19;2.28;;;1.00;;
9330;SDS011;4704;50.470;12.072;2023-09-19T03:06:47;1.17;;;1.02;;
9330;SDS011;4704;50.470;12.072;2023-09-19T03:09:17;1.38;;;1.08;;
9330;SDS011;4704;50.470;12.072;2023-09-19T03:11:45;1.20;;;1.08;;
9330;SDS011;4704;50.470;12.072;2023-09-19T03:14:13;1.08;;;0.98;;
9330;SDS011;4704;50.470;12.072;2023-09-19T03:16:41;1.20;;;1.10;;
9330;SDS011;4704;50.470;12.072;2023-09-19T03:19:09;1.38;;;1.20;;
9330;SDS011;4704;50.470;12.072;2023-09-19T03:21:37;1.38;;;1.00;;
9330;SDS011;4704;50.470;12.072;2023-09-19T03:24:05;1.45;;;1.23;;
9330;SDS011;4704;50.470;12.072;2023-09-19T03:26:34;1.05;;;0.90;;
9330;SDS011;4704;50.470;12.072;2023-09-19T03:29:03;1.77;;;1.00;;
9330;SDS011;4704;50.470;12.072;2023-09-19T03:31:33;1.15;;;0.90;;
9330;SDS011;4704;50.470;12.072;2023-09-19T03:34:03;1.23;;;1.00;;
9330;SDS011;4704;50.470;12.072;2023-09-19T03:36:30;1.70;;;1.08;;
9330;SDS011;4704;50.470;12.072;2023-09-19T03:39:00;1.10;;;1.00;;
9330;SDS011;4704;50.470;12.072;2023-09-19T03:41:30;1.52;;;0.93;;
9330;SDS011;4704;50.470;12.072;2023-09-19T03:44:00;0.98;;;0.95;;
9330;SDS011;4704;50.470;12.072;2023-09-19T03:46:27;3.05;;;1.20;;
9330;SDS011;4704;50.470;12.072;2023-09-19T03:48:55;0.98;;;0.95;;
9330;SDS011;4704;50.470;12.072;2023-09-19T03:51:23;0.95;;;0.90;;
9330;SDS011;4704;50.470;12.072;2023-09-19T03:53:50;1.40;;;1.10;;
9330;SDS011;4704;50.470;12.072;2023-09-19T03:56:18;1.15;;;0.90;;
9330;SDS011;4704;50.470;12.072;2023-09-19T03:58:46;1.10;;;1.00;;
9330;SDS011;4704;50.470;12.072;2023-09-19T04:01:15;1.73;;;1.10;;
9330;SDS011;4704;50.470;12.072;2023-09-19T04:03:43;1.27;;;1.00;;
9330;SDS011;4704;50.470;12.072;2023-09-19T04:06:13;1.35;;;1.10;;
9330;SDS011;4704;50.470;12.072;2023-09-19T04:08:41;1.20;;;1.10;;
9330;SDS011;4704;50.470;12.072;2023-09-19T04:11:09;1.13;;;0.93;;
9330;SDS011;4704;50.470;12.072;2023-09-19T04:13:37;1.05;;;1.00;;
9330;SDS011;4704;50.470;12.072;2023-09-19T04:16:04;1.65;;;1.00;;
9330;SDS011;4704;50.470;12.072;2023-09-19T04:18:33;1.40;;;0.93;;
9330;SDS011;4704;50.470;12.072;2023-09-19T04:21:03;1.00;;;0.93;;
9330;SDS011;4704;50.470;12.072;2023-09-19T04:23:31;1.20;;;1.10;;
9330;SDS011;4704;50.470;12.072;2023-09-19T04:25:58;1.15;;;0.95;;
9330;SDS011;4704;50.470;12.072;2023-09-19T04:28:26;3.13;;;1.20;;
9330;SDS011;4704;50.470;12.072;2023-09-19T04:30:53;2.03;;;1.20;;
9330;SDS011;4704;50.470;12.072;2023-09-19T04:33:21;1.33;;;1.10;;
9330;SDS011;4704;50.470;12.072;2023-09-19T04:35:50;1.42;;;1.00;;
9330;SDS011;4704;50.470;12.072;2023-09-19T04:38:18;1.63;;;1.10;;
9330;SDS011;4704;50.470;12.072;2023-09-19T04:40:45;1.45;;;1.00;;
9330;SDS011;4704;50.470;12.072;2023-09-19T04:43:12;1.25;;;1.00;;
9330;SDS011;4704;50.470;12.072;2023-09-19T04:45:40;1.70;;;0.88;;
9330;SDS011;4704;50.470;12.072;2023-09-19T04:48:08;1.10;;;1.00;;
9330;SDS011;4704;50.470;12.072;2023-09-19T04:50:36;1.30;;;1.20;;
9330;SDS011;4704;50.470;12.072;2023-09-19T04:53:05;2.67;;;1.08;;
9330;SDS011;4704;50.470;12.072;2023-09-19T04:55:33;1.40;;;1.20;;
9330;SDS011;4704;50.470;12.072;2023-09-19T04:58:01;1.20;;;1.10;;
9330;SDS011;4704;50.470;12.072;2023-09-19T05:00:29;1.08;;;0.98;;
9330;SDS011;4704;50.470;12.072;2023-09-19T05:03:00;2.08;;;1.10;;
9330;SDS011;4704;50.470;12.072;2023-09-19T05:05:29;1.10;;;1.00;;
9330;SDS011;4704;50.470;12.072;2023-09-19T05:07:57;1.10;;;1.00;;
9330;SDS011;4704;50.470;12.072;2023-09-19T05:10:26;2.28;;;1.20;;
9330;SDS011;4704;50.470;12.072;2023-09-19T05:12:53;2.30;;;1.30;;
9330;SDS011;4704;50.470;12.072;2023-09-19T05:15:21;1.17;;;1.10;;
9330;SDS011;4704;50.470;12.072;2023-09-19T05:17:49;1.38;;;1.00;;
9330;SDS011;4704;50.470;12.072;2023-09-19T05:20:19;1.70;;;0.95;;
9330;SDS011;4704;50.470;12.072;2023-09-19T05:22:57;1.55;;;1.45;;
9330;SDS011;4704;50.470;12.072;2023-09-19T05:25:27;1.75;;;1.20;;
9330;SDS011;4704;50.470;12.072;2023-09-19T05:27:56;1.50;;;1.00;;
9330;SDS011;4704;50.470;12.072;2023-09-19T05:30:24;1.10;;;1.00;;
9330;SDS011;4704;50.470;12.072;2023-09-19T05:32:52;1.70;;;1.27;;
9330;SDS011;4704;50.470;12.072;2023-09-19T05:35:21;1.60;;;0.98;;
9330;SDS011;4704;50.470;12.072;2023-09-19T05:37:50;1.42;;;1.10;;
9330;SDS011;4704;50.470;12.072;2023-09-19T05:40:17;1.02;;;0.93;;
9330;SDS011;4704;50.470;12.072;2023-09-19T05:42:46;1.10;;;1.00;;
9330;SDS011;4704;50.470;12.072;2023-09-19T05:45:16;1.08;;;0.88;;
9330;SDS011;4704;50.470;12.072;2023-09-19T05:47:47;2.25;;;1.08;;
9330;SDS011;4704;50.470;12.072;2023-09-19T05:50:15;1.52;;;1.27;;
9330;SDS011;4704;50.470;12.072;2023-09-19T05:52:43;1.17;;;1.00;;
9330;SDS011;4704;50.470;12.072;2023-09-19T05:55:11;1.80;;;1.15;;
9330;SDS011;4704;50.470;12.072;2023-09-19T05:57:37;1.33;;;1.00;;
9330;SDS011;4704;50.470;12.072;2023-09-19T06:00:09;1.50;;;1.20;;
9330;SDS011;4704;50.470;12.072;2023-09-19T06:02:37;1.20;;;1.00;;
9330;SDS011;4704;50.470;12.072;2023-09-19T06:05:06;2.58;;;1.10;;
9330;SDS011;4704;50.470;12.072;2023-09-19T06:07:35;1.88;;;1.05;;
9330;SDS011;4704;50.470;12.072;2023-09-19T06:10:03;1.83;;;1.02;;
9330;SDS011;4704;50.470;12.072;2023-09-19T06:12:32;1.65;;;1.10;;
9330;SDS011;4704;50.470;12.072;2023-09-19T06:15:02;1.25;;;1.15;;
9330;SDS011;4704;50.470;12.072;2023-09-19T06:17:35;1.83;;;1.10;;
9330;SDS011;4704;50.470;12.072;2023-09-19T06:20:04;1.25;;;1.13;;
9330;SDS011;4704;50.470;12.072;2023-09-19T06:22:36;1.15;;;1.05;;
9330;SDS011;4704;50.470;12.072;2023-09-19T06:25:03;1.67;;;1.20;;
9330;SDS011;4704;50.470;12.072;2023-09-19T06:27:32;1.23;;;1.13;;
9330;SDS011;4704;50.470;12.072;2023-09-19T06:30:01;2.78;;;1.13;;
9330;SDS011;4704;50.470;12.072;2023-09-19T06:32:29;1.23;;;1.13;;
9330;SDS011;4704;50.470;12.072;2023-09-19T06:34:58;1.50;;;1.15;;
9330;SDS011;4704;50.470;12.072;2023-09-19T06:37:26;1.95;;;1.20;;
9330;SDS011;4704;50.470;12.072;2023-09-19T06:39:54;1.48;;;1.30;;
9330;SDS011;4704;50.470;12.072;2023-09-19T06:42:22;1.42;;;1.20;;
9330;SDS011;4704;50.470;12.072;2023-09-19T06:44:49;1.70;;;1.30;;
9330;SDS011;4704;50.470;12.072;2023-09-19T06:47:18;0.98;;;0.98;;
9330;SDS011;4704;50.470;12.072;2023-09-19T06:49:46;2.13;;;1.15;;
9330;SDS011;4704;50.470;12.072;2023-09-19T06:52:14;1.98;;;1.30;;
9330;SDS011;4704;50.470;12.072;2023-09-19T06:54:43;1.20;;;1.08;;
9330;SDS011;4704;50.470;12.072;2023-09-19T06:57:10;1.23;;;1.13;;
9330;SDS011;4704;50.470;12.072;2023-09-19T06:59:39;1.67;;;1.00;;
9330;SDS011;4704;50.470;12.072;2023-09-19T07:02:06;1.90;;;1.30;;
9330;SDS011;4704;50.470;12.072;2023-09-19T07:04:33;1.50;;;1.10;;
9330;SDS011;4704;50.470;12.072;2023-09-19T07:07:01;1.75;;;1.15;;
9330;SDS011;4704;50.470;12.072;2023-09-19T07:09:30;1.52;;;1.15;;
9330;SDS011;4704;50.470;12.072;2023-09-19T07:11:58;1.30;;;1.20;;
9330;SDS011;4704;50.470;12.072;2023-09-19T07:14:25;1.27;;;1.17;;
9330;SDS011;4704;50.470;12.072;2023-09-19T07:16:55;1.45;;;1.10;;
9330;SDS011;4704;50.470;12.072;2023-09-19T07:19:25;1.85;;;1.20;;
9330;SDS011;4704;50.470;12.072;2023-09-19T07:21:53;2.33;;;1.48;;
9330;SDS011;4704;50.470;12.072;2023-09-19T07:24:21;1.30;;;1.20;;
9330;SDS011;4704;50.470;12.072;2023-09-19T07:26:50;1.70;;;1.10;;
9330;SDS011;4704;50.470;12.072;2023-09-19T07:29:18;1.20;;;1.10;;
9330;SDS011;4704;50.470;12.072;2023-09-19T07:31:45;1.35;;;1.23;;
9330;SDS011;4704;50.470;12.072;2023-09-19T07:34:13;1.52;;;1.38;;
9330;SDS011;4704;50.470;12.072;2023-09-19T07:36:40;1.40;;;1.10;;
9330;SDS011;4704;50.470;12.072;2023-09-19T07:39:09;1.73;;;1.15;;
9330;SDS011;4704;50.470;12.072;2023-09-19T07:41:36;1.20;;;1.10;;
9330;SDS011;4704;50.470;12.072;2023-09-19T07:44:05;2.63;;;1.50;;
9330;SDS011;4704;50.470;12.072;2023-09-19T07:46:32;2.55;;;1.40;;
9330;SDS011;4704;50.470;12.072;2023-09-19T07:49:00;1.75;;;1.08;;
9330;SDS011;4704;50.470;12.072;2023-09-19T07:51:28;1.35;;;1.25;;
9330;SDS011;4704;50.470;12.072;2023-09-19T07:53:55;1.52;;;1.20;;
9330;SDS011;4704;50.470;12.072;2023-09-19T07:56:23;2.63;;;1.10;;
9330;SDS011;4704;50.470;12.072;2023-09-19T07:58:51;1.98;;;1.20;;
9330;SDS011;4704;50.470;12.072;2023-09-19T08:01:20;1.60;;;1.20;;
9330;SDS011;4704;50.470;12.072;2023-09-19T08:03:49;1.45;;;1.15;;
9330;SDS011;4704;50.470;12.072;2023-09-19T08:06:16;1.00;;;0.90;;
9330;SDS011;4704;50.470;12.072;2023-09-19T08:08:45;1.27;;;1.10;;
9330;SDS011;4704;50.470;12.072;2023-09-19T08:11:14;0.93;;;0.90;;
9330;SDS011;4704;50.470;12.072;2023-09-19T08:13:46;1.50;;;1.10;;
9330;SDS011;4704;50.470;12.072;2023-09-19T08:16:14;1.42;;;1.27;;
9330;SDS011;4704;50.470;12.072;2023-09-19T08:18:47;1.27;;;0.85;;
9330;SDS011;4704;50.470;12.072;2023-09-19T08:21:20;1.15;;;1.00;;
9330;SDS011;4704;50.470;12.072;2023-09-19T08:23:48;1.10;;;0.90;;
9330;SDS011;4704;50.470;12.072;2023-09-19T08:26:16;1.77;;;1.20;;
9330;SDS011;4704;50.470;12.072;2023-09-19T08:28:44;1.50;;;0.98;;
9330;SDS011;4704;50.470;12.072;2023-09-19T08:31:13;1.90;;;1.10;;
9330;SDS011;4704;50.470;12.072;2023-09-19T08:33:42;1.40;;;0.90;;
9330;SDS011;4704;50.470;12.072;2023-09-19T08:36:13;1.13;;;0.80;;
9330;SDS011;4704;50.470;12.072;2023-09-19T08:38:41;1.48;;;0.80;;
9330;SDS011;4704;50.470;12.072;2023-09-19T08:41:08;1.23;;;0.90;;
9330;SDS011;4704;50.470;12.072;2023-09-19T08:43:36;1.30;;;0.90;;
9330;SDS011;4704;50.470;12.072;2023-09-19T08:46:07;0.98;;;0.90;;
9330;SDS011;4704;50.470;12.072;2023-09-19T08:48:38;1.05;;;0.90;;
9330;SDS011;4704;50.470;12.072;2023-09-19T08:51:06;1.10;;;0.90;;
9330;SDS011;4704;50.470;12.072;2023-09-19T08:53:38;0.88;;;0.77;;
9330;SDS011;4704;50.470;12.072;2023-09-19T08:56:11;1.05;;;0.88;;
9330;SDS011;4704;50.470;12.072;2023-09-19T08:58:43;1.33;;;0.90;;
9330;SDS011;4704;50.470;12.072;2023-09-19T09:01:13;0.73;;;0.73;;
9330;SDS011;4704;50.470;12.072;2023-09-19T09:03:42;1.60;;;0.90;;
9330;SDS011;4704;50.470;12.072;2023-09-19T09:06:13;0.77;;;0.68;;
9330;SDS011;4704;50.470;12.072;2023-09-19T09:08:43;0.70;;;0.70;;
9330;SDS011;4704;50.470;12.072;2023-09-19T09:11:10;1.38;;;0.90;;
9330;SDS011;4704;50.470;12.072;2023-09-19T09:13:38;0.90;;;0.90;;
9330;SDS011;4704;50.470;12.072;2023-09-19T09:16:06;1.42;;;1.00;;
9330;SDS011;4704;50.470;12.072;2023-09-19T09:18:35;1.10;;;0.80;;
9330;SDS011;4704;50.470;12.072;2023-09-19T09:21:02;0.68;;;0.68;;
9330;SDS011;4704;50.470;12.072;2023-09-19T09:23:30;2.92;;;0.90;;
9330;SDS011;4704;50.470;12.072;2023-09-19T09:26:00;1.20;;;0.82;;
9330;SDS011;4704;50.470;12.072;2023-09-19T09:28:30;1.30;;;0.98;;
9330;SDS011;4704;50.470;12.072;2023-09-19T09:30:58;1.50;;;1.00;;
9330;SDS011;4704;50.470;12.072;2023-09-19T09:33:27;1.45;;;0.80;;
9330;SDS011;4704;50.470;12.072;2023-09-19T09:35:56;2.90;;;1.17;;
9330;SDS011;4704;50.470;12.072;2023-09-19T09:38:25;1.13;;;0.80;;
9330;SDS011;4704;50.470;12.072;2023-09-19T09:40:57;1.63;;;1.10;;
9330;SDS011;4704;50.470;12.072;2023-09-19T09:43:29;1.25;;;0.80;;
9330;SDS011;4704;50.470;12.072;2023-09-19T09:46:11;1.77;;;1.02;;
9330;SDS011;4704;50.470;12.072;2023-09-19T09:48:56;2.47;;;1.20;;
9330;SDS011;4704;50.470;12.072;2023-09-19T09:51:44;1.38;;;1.08;;
9330;SDS011;4704;50.470;12.072;2023-09-19T09:54:13;1.98;;;1.30;;
9330;SDS011;4704;50.470;12.072;2023-09-19T09:56:56;1.20;;;1.10;;
9330;SDS011;4704;50.470;12.072;2023-09-19T10:02:13;1.75;;;1.08;;
9330;SDS011;4704;50.470;12.072;2023-09-19T10:04:45;1.23;;;0.90;;
9330;SDS011;4704;50.470;12.072;2023-09-19T10:07:27;1.70;;;1.25;;
9330;SDS011;4704;50.470;12.072;2023-09-19T10:09:57;1.45;;;1.17;;
9330;SDS011;4704;50.470;12.072;2023-09-19T10:12:36;1.92;;;1.10;;
9330;SDS011;4704;50.470;12.072;2023-09-19T10:15:06;1.30;;;1.20;;
9330;SDS011;4704;50.470;12.072;2023-09-19T10:17:38;1.75;;;1.20;;
9330;SDS011;4704;50.470;12.072;2023-09-19T10:20:12;2.13;;;1.38;;
9330;SDS011;4704;50.470;12.072;2023-09-19T10:23:03;2.17;;;1.35;;
9330;SDS011;4704;50.470;12.072;2023-09-19T10:25:34;2.30;;;1.25;;
9330;SDS011;4704;50.470;12.072;2023-09-19T10:28:03;1.63;;;1.10;;
9330;SDS011;4704;50.470;12.072;2023-09-19T10:30:36;1.58;;;0.98;;
9330;SDS011;4704;50.470;12.072;2023-09-19T10:33:09;1.25;;;1.10;;
9330;SDS011;4704;50.470;12.072;2023-09-19T10:35:37;1.27;;;1.02;;
9330;SDS011;4704;50.470;12.072;2023-09-19T10:38:06;1.27;;;1.17;;
9330;SDS011;4704;50.470;12.072;2023-09-19T10:40:34;1.30;;;1.20;;
9330;SDS011;4704;50.470;12.072;2023-09-19T10:43:02;0.98;;;0.88;;
9330;SDS011;4704;50.470;12.072;2023-09-19T10:45:31;1.42;;;1.33;;
9330;SDS011;4704;50.470;12.072;2023-09-19T10:47:59;1.77;;;1.10;;
9330;SDS011;4704;50.470;12.072;2023-09-19T10:50:30;1.20;;;1.10;;
9330;SDS011;4704;50.470;12.072;2023-09-19T10:52:59;2.58;;;1.00;;
9330;SDS011;4704;50.470;12.072;2023-09-19T10:55:30;1.20;;;1.10;;
9330;SDS011;4704;50.470;12.072;2023-09-19T10:58:00;1.20;;;1.10;;
9330;SDS011;4704;50.470;12.072;2023-09-19T11:03:33;1.20;;;1.10;;
9330;SDS011;4704;50.470;12.072;2023-09-19T11:06:04;1.05;;;0.95;;
9330;SDS011;4704;50.470;12.072;2023-09-19T11:11:41;1.10;;;1.00;;
9330;SDS011;4704;50.470;12.072;2023-09-19T11:14:14;1.60;;;1.20;;
9330;SDS011;4704;50.470;12.072;2023-09-19T11:16:51;1.42;;;1.00;;
9330;SDS011;4704;50.470;12.072;2023-09-19T11:22:26;1.35;;;1.10;;
9330;SDS011;4704;50.470;12.072;2023-09-19T11:28:27;1.30;;;1.20;;
9330;SDS011;4704;50.470;12.072;2023-09-19T11:30:56;1.30;;;1.05;;
9330;SDS011;4704;50.470;12.072;2023-09-19T11:33:24;1.63;;;1.20;;
9330;SDS011;4704;50.470;12.072;2023-09-19T11:36:03;1.45;;;1.13;;
9330;SDS011;4704;50.470;12.072;2023-09-19T11:46:53;1.40;;;1.15;;
9330;SDS011;4704;50.470;12.072;2023-09-19T11:49:26;1.20;;;1.10;;
9330;SDS011;4704;50.470;12.072;2023-09-19T11:51:55;1.60;;;1.30;;
9330;SDS011;4704;50.470;12.072;2023-09-19T11:54:23;1.58;;;1.30;;
9330;SDS011;4704;50.470;12.072;2023-09-19T11:56:54;1.35;;;1.25;;
9330;SDS011;4704;50.470;12.072;2023-09-19T11:59:22;1.38;;;1.27;;
9330;SDS011;4704;50.470;12.072;2023-09-19T12:01:55;2.10;;;1.38;;
9330;SDS011;4704;50.470;12.072;2023-09-19T12:04:36;2.03;;;1.45;;
9330;SDS011;4704;50.470;12.072;2023-09-19T12:07:04;1.73;;;1.50;;
9330;SDS011;4704;50.470;12.072;2023-09-19T12:09:38;1.40;;;1.30;;
9330;SDS011;4704;50.470;12.072;2023-09-19T12:12:09;1.58;;;1.48;;
9330;SDS011;4704;50.470;12.072;2023-09-19T12:14:37;1.67;;;1.17;;
9330;SDS011;4704;50.470;12.072;2023-09-19T12:17:08;2.63;;;1.58;;
9330;SDS011;4704;50.470;12.072;2023-09-19T12:19:38;1.40;;;1.30;;
9330;SDS011;4704;50.470;12.072;2023-09-19T12:22:06;1.40;;;1.30;;
9330;SDS011;4704;50.470;12.072;2023-09-19T12:24:34;2.05;;;1.45;;
9330;SDS011;4704;50.470;12.072;2023-09-19T12:27:04;2.42;;;1.52;;
9330;SDS011;4704;50.470;12.072;2023-09-19T12:29:31;2.05;;;1.58;;
9330;SDS011;4704;50.470;12.072;2023-09-19T12:31:59;1.67;;;1.52;;
9330;SDS011;4704;50.470;12.072;2023-09-19T12:34:30;1.60;;;1.50;;
9330;SDS011;4704;50.470;12.072;2023-09-19T12:37:07;1.70;;;1.60;;
9330;SDS011;4704;50.470;12.072;2023-09-19T12:39:41;1.98;;;1.73;;
9330;SDS011;4704;50.470;12.072;2023-09-19T12:42:09;1.77;;;1.50;;
9330;SDS011;4704;50.470;12.072;2023-09-19T12:44:40;1.95;;;1.67;;
9330;SDS011;4704;50.470;12.072;2023-09-19T12:47:13;2.15;;;1.83;;
9330;SDS011;4704;50.470;12.072;2023-09-19T12:52:35;1.92;;;1.55;;
9330;SDS011;4704;50.470;12.072;2023-09-19T12:55:03;1.92;;;1.63;;
9330;SDS011;4704;50.470;12.072;2023-09-19T12:57:32;2.83;;;1.70;;
9330;SDS011;4704;50.470;12.072;2023-09-19T13:00:00;2.40;;;1.90;;
9330;SDS011;4704;50.470;12.072;2023-09-19T13:02:28;1.95;;;1.75;;
9330;SDS011;4704;50.470;12.072;2023-09-19T13:04:55;2.08;;;1.70;;
9330;SDS011;4704;50.470;12.072;2023-09-19T13:07:41;1.88;;;1.73;;
9330;SDS011;4704;50.470;12.072;2023-09-19T13:10:11;1.85;;;1.65;;
9330;SDS011;4704;50.470;12.072;2023-09-19T13:12:40;2.17;;;1.58;;
9330;SDS011;4704;50.470;12.072;2023-09-19T13:15:09;2.13;;;1.75;;
9330;SDS011;4704;50.470;12.072;2023-09-19T13:17:42;2.08;;;1.70;;
9330;SDS011;4704;50.470;12.072;2023-09-19T13:20:20;2.13;;;1.92;;
9330;SDS011;4704;50.470;12.072;2023-09-19T13:22:51;2.22;;;2.03;;
9330;SDS011;4704;50.470;12.072;2023-09-19T13:25:23;1.88;;;1.77;;
9330;SDS011;4704;50.470;12.072;2023-09-19T13:27:52;4.28;;;2.13;;
9330;SDS011;4704;50.470;12.072;2023-09-19T13:30:22;2.40;;;2.20;;
9330;SDS011;4704;50.470;12.072;2023-09-19T13:32:50;3.25;;;2.35;;
9330;SDS011;4704;50.470;12.072;2023-09-19T13:35:19;2.30;;;2.08;;
9330;SDS011;4704;50.470;12.072;2023-09-19T13:37:47;2.15;;;1.80;;
9330;SDS011;4704;50.470;12.072;2023-09-19T13:40:18;2.70;;;2.10;;
9330;SDS011;4704;50.470;12.072;2023-09-19T13:42:45;2.88;;;2.08;;
9330;SDS011;4704;50.470;12.072;2023-09-19T13:45:13;2.78;;;2.10;;
9330;SDS011;4704;50.470;12.072;2023-09-19T13:47:43;2.47;;;2.28;;
9330;SDS011;4704;50.470;12.072;2023-09-19T13:50:10;2.13;;;1.92;;
9330;SDS011;4704;50.470;12.072;2023-09-19T13:52:38;2.88;;;2.00;;
9330;SDS011;4704;50.470;12.072;2023-09-19T13:55:05;2.58;;;2.00;;
9330;SDS011;4704;50.470;12.072;2023-09-19T13:57:34;3.90;;;2.22;;
9330;SDS011;4704;50.470;12.072;2023-09-19T14:00:02;2.10;;;1.90;;
9330;SDS011;4704;50.470;12.072;2023-09-19T14:02:30;3.83;;;2.20;;
9330;SDS011;4704;50.470;12.072;2023-09-19T14:04:57;3.70;;;2.20;;
9330;SDS011;4704;50.470;12.072;2023-09-19T14:07:25;2.75;;;2.08;;
9330;SDS011;4704;50.470;12.072;2023-09-19T14:09:52;3.53;;;2.17;;
9330;SDS011;4704;50.470;12.072;2023-09-19T14:12:20;5.35;;;2.42;;
9330;SDS011;4704;50.470;12.072;2023-09-19T14:14:48;3.08;;;2.33;;
9330;SDS011;4704;50.470;12.072;2023-09-19T14:17:16;2.58;;;2.05;;
9330;SDS011;4704;50.470;12.072;2023-09-19T14:19:43;2.35;;;1.85;;
9330;SDS011;4704;50.470;12.072;2023-09-19T14:22:11;2.72;;;2.15;;
9330;SDS011;4704;50.470;12.072;2023-09-19T14:24:39;3.72;;;2.10;;
9330;SDS011;4704;50.470;12.072;2023-09-19T14:27:07;2.47;;;2.00;;
9330;SDS011;4704;50.470;12.072;2023-09-19T14:29:35;2.42;;;2.22;;
9330;SDS011;4704;50.470;12.072;2023-09-19T14:32:05;3.50;;;2.20;;
9330;SDS011;4704;50.470;12.072;2023-09-19T14:34:32;2.95;;;2.10;;
9330;SDS011;4704;50.470;12.072;2023-09-19T14:37:01;3.25;;;2.10;;
9330;SDS011;4704;50.470;12.072;2023-09-19T14:39:29;2.92;;;2.40;;
9330;SDS011;4704;50.470;12.072;2023-09-19T14:41:56;2.20;;;2.00;;
9330;SDS011;4704;50.470;12.072;2023-09-19T14:44:24;2.28;;;2.08;;
9330;SDS011;4704;50.470;12.072;2023-09-19T14:46:51;2.60;;;2.30;;
9330;SDS011;4704;50.470;12.072;2023-09-19T14:49:21;3.30;;;2.10;;
9330;SDS011;4704;50.470;12.072;2023-09-19T14:51:48;2.80;;;1.92;;
9330;SDS011;4704;50.470;12.072;2023-09-19T14:54:18;2.10;;;1.90;;
9330;SDS011;4704;50.470;12.072;2023-09-19T14:56:46;3.00;;;2.10;;
9330;SDS011;4704;50.470;12.072;2023-09-19T14:59:19;2.33;;;1.88;;
9330;SDS011;4704;50.470;12.072;2023-09-19T15:01:46;3.42;;;2.00;;
9330;SDS011;4704;50.470;12.072;2023-09-19T15:04:15;2.63;;;2.15;;
9330;SDS011;4704;50.470;12.072;2023-09-19T15:06:44;2.35;;;2.03;;
9330;SDS011;4704;50.470;12.072;2023-09-19T15:09:13;2.75;;;2.30;;
9330;SDS011;4704;50.470;12.072;2023-09-19T15:11:43;2.40;;;2.15;;
9330;SDS011;4704;50.470;12.072;2023-09-19T15:14:11;3.28;;;2.22;;
9330;SDS011;4704;50.470;12.072;2023-09-19T15:16:38;2.22;;;2.03;;
9330;SDS011;4704;50.470;12.072;2023-09-19T15:19:08;2.22;;;1.95;;
9330;SDS011;4704;50.470;12.072;2023-09-19T15:21:36;2.20;;;2.00;;
9330;SDS011;4704;50.470;12.072;2023-09-19T15:24:07;2.42;;;1.80;;
9330;SDS011;4704;50.470;12.072;2023-09-19T15:26:35;2.25;;;2.05;;
9330;SDS011;4704;50.470;12.072;2023-09-19T15:29:04;2.58;;;2.15;;
9330;SDS011;4704;50.470;12.072;2023-09-19T15:31:32;2.58;;;2.22;;
9330;SDS011;4704;50.470;12.072;2023-09-19T15:34:02;2.47;;;2.13;;
9330;SDS011;4704;50.470;12.072;2023-09-19T15:36:30;2.08;;;1.88;;
9330;SDS011;4704;50.470;12.072;2023-09-19T15:38:58;2.25;;;1.90;;
9330;SDS011;4704;50.470;12.072;2023-09-19T15:41:28;2.53;;;2.00;;